sensor_id;sensor_type;location;lat;lon;timestamp;pressure;altitude;pressure_sealevel;temperature;humidity
84936;BME280;75210;52.210;20.902;2024-03-23T00:52:40;99537.72;;;10.12;85.93
84936;BME280;75210;52.210;20.902;2024-03-23T00:53:43;99524.84;;;10.07;86.06
84936;BME280;75210;52.210;20.902;2024-03-23T00:54:43;99348.56;;;9.08;86.06
84936;BME280;75210;52.210;20.902;2024-03-23T00:55:44;99504.97;;;10.01;86.37
84936;BME280;75210;52.210;20.902;2024-03-23T00:56:44;99505.63;;;10.05;85.75
84936;BME280;75210;52.210;20.902;2024-03-23T00:57:45;99433.03;;;9.46;86.72
84936;BME280;75210;52.210;20.902;2024-03-23T00:58:45;99413.88;;;9.29;87.16
84936;BME280;75210;52.210;20.902;2024-03-23T00:59:46;99461.03;;;9.61;86.93
84936;BME280;75210;52.210;20.902;2024-03-23T01:00:46;99498.19;;;9.70;87.62
84936;BME280;75210;52.210;20.902;2024-03-23T01:01:47;99412.94;;;9.16;87.14
84936;BME280;75210;52.210;20.902;2024-03-23T01:02:47;99451.63;;;9.57;86.92
84936;BME280;75210;52.210;20.902;2024-03-23T01:03:48;99516.41;;;9.88;87.99
84936;BME280;75210;52.210;20.902;2024-03-23T01:04:48;99444.78;;;9.40;87.41
84936;BME280;75210;52.210;20.902;2024-03-23T01:05:49;99468.63;;;9.65;87.20
84936;BME280;75210;52.210;20.902;2024-03-23T01:06:49;99477.09;;;9.70;87.55
84936;BME280;75210;52.210;20.902;2024-03-23T01:07:50;99355.44;;;8.96;87.38
84936;BME280;75210;52.210;20.902;2024-03-23T01:08:52;99447.13;;;9.45;87.60
84936;BME280;75210;52.210;20.902;2024-03-23T01:09:53;99515.47;;;9.89;87.54
84936;BME280;75210;52.210;20.902;2024-03-23T01:10:54;99504.38;;;9.84;87.74
84936;BME280;75210;52.210;20.902;2024-03-23T01:11:55;99489.81;;;9.64;87.61
84936;BME280;75210;52.210;20.902;2024-03-23T01:12:55;99301.38;;;8.63;87.33
84936;BME280;75210;52.210;20.902;2024-03-23T01:13:56;99511.09;;;10.02;87.04
84936;BME280;75210;52.210;20.902;2024-03-23T01:14:56;99507.44;;;9.90;87.99
84936;BME280;75210;52.210;20.902;2024-03-23T01:15:57;99485.75;;;9.72;88.05
84936;BME280;75210;52.210;20.902;2024-03-23T01:16:58;99403.44;;;9.28;87.82
84936;BME280;75210;52.210;20.902;2024-03-23T01:17:59;99370.66;;;9.05;87.60
84936;BME280;75210;52.210;20.902;2024-03-23T01:18:59;99505.50;;;9.80;88.22
84936;BME280;75210;52.210;20.902;2024-03-23T01:20:00;99390.19;;;9.15;88.13
84936;BME280;75210;52.210;20.902;2024-03-23T01:21:01;99428.81;;;9.43;87.95
84936;BME280;75210;52.210;20.902;2024-03-23T01:22:01;99423.00;;;9.38;88.00
84936;BME280;75210;52.210;20.902;2024-03-23T01:23:02;99506.50;;;9.91;87.78
84936;BME280;75210;52.210;20.902;2024-03-23T01:24:04;99407.66;;;9.30;87.85
84936;BME280;75210;52.210;20.902;2024-03-23T01:25:05;99505.13;;;9.86;88.49
84936;BME280;75210;52.210;20.902;2024-03-23T01:26:06;99487.63;;;9.85;87.99
84936;BME280;75210;52.210;20.902;2024-03-23T01:27:06;99325.41;;;8.86;87.55
84936;BME280;75210;52.210;20.902;2024-03-23T01:28:08;99484.13;;;9.84;88.14
84936;BME280;75210;52.210;20.902;2024-03-23T01:29:09;99419.97;;;9.44;87.95
84936;BME280;75210;52.210;20.902;2024-03-23T01:30:10;99391.16;;;9.14;87.92
84936;BME280;75210;52.210;20.902;2024-03-23T01:31:10;99470.16;;;9.69;88.00
84936;BME280;75210;52.210;20.902;2024-03-23T01:32:11;99461.03;;;9.75;87.58
84936;BME280;75210;52.210;20.902;2024-03-23T01:33:11;99494.75;;;9.97;87.92
84936;BME280;75210;52.210;20.902;2024-03-23T01:34:12;99462.50;;;9.79;87.65
84936;BME280;75210;52.210;20.902;2024-03-23T01:35:12;99398.56;;;9.36;87.86
84936;BME280;75210;52.210;20.902;2024-03-23T01:36:13;99359.28;;;9.05;88.50
84936;BME280;75210;52.210;20.902;2024-03-23T01:37:13;99418.75;;;9.35;88.35
84936;BME280;75210;52.210;20.902;2024-03-23T01:38:14;99402.50;;;9.29;88.14
84936;BME280;75210;52.210;20.902;2024-03-23T01:39:16;99418.19;;;9.45;87.83
84936;BME280;75210;52.210;20.902;2024-03-23T01:40:17;99382.09;;;9.18;87.99
84936;BME280;75210;52.210;20.902;2024-03-23T01:41:18;99483.88;;;9.75;88.38
84936;BME280;75210;52.210;20.902;2024-03-23T01:42:18;99492.63;;;9.75;88.84
84936;BME280;75210;52.210;20.902;2024-03-23T01:43:19;99428.72;;;9.45;88.22
84936;BME280;75210;52.210;20.902;2024-03-23T01:44:19;99458.41;;;9.61;88.72
84936;BME280;75210;52.210;20.902;2024-03-23T01:45:20;99415.38;;;9.33;88.87
84936;BME280;75210;52.210;20.902;2024-03-23T01:46:20;99484.13;;;9.84;88.40
84936;BME280;75210;52.210;20.902;2024-03-23T01:47:21;99418.09;;;9.46;88.69
84936;BME280;75210;52.210;20.902;2024-03-23T01:48:21;99399.94;;;9.27;88.47
84936;BME280;75210;52.210;20.902;2024-03-23T01:49:22;99415.19;;;9.36;88.87
84936;BME280;75210;52.210;20.902;2024-03-23T01:50:23;99368.41;;;9.13;88.63
84936;BME280;75210;52.210;20.902;2024-03-23T01:51:23;99443.53;;;9.74;88.46
84936;BME280;75210;52.210;20.902;2024-03-23T01:52:24;99486.53;;;10.01;88.50
84936;BME280;75210;52.210;20.902;2024-03-23T01:53:24;99382.94;;;9.47;88.06
84936;BME280;75210;52.210;20.902;2024-03-23T01:54:27;99321.81;;;9.01;88.01
84936;BME280;75210;52.210;20.902;2024-03-23T01:55:28;99487.69;;;9.97;88.31
84936;BME280;75210;52.210;20.902;2024-03-23T01:56:29;99353.06;;;9.20;87.79
84936;BME280;75210;52.210;20.902;2024-03-23T01:57:29;99374.38;;;9.29;88.20
84936;BME280;75210;52.210;20.902;2024-03-23T01:58:30;99379.94;;;9.39;88.10
84936;BME280;75210;52.210;20.902;2024-03-23T01:59:30;99463.59;;;9.89;88.02
84936;BME280;75210;52.210;20.902;2024-03-23T02:00:31;99457.03;;;9.82;88.10
84936;BME280;75210;52.210;20.902;2024-03-23T02:01:32;99467.00;;;9.91;87.97
84936;BME280;75210;52.210;20.902;2024-03-23T02:02:32;99478.63;;;10.01;88.32
84936;BME280;75210;52.210;20.902;2024-03-23T02:03:33;99383.09;;;9.44;88.22
84936;BME280;75210;52.210;20.902;2024-03-23T02:04:33;99480.31;;;10.02;88.68
84936;BME280;75210;52.210;20.902;2024-03-23T02:05:34;99472.97;;;10.07;88.23
84936;BME280;75210;52.210;20.902;2024-03-23T02:06:34;99478.16;;;10.09;88.04
84936;BME280;75210;52.210;20.902;2024-03-23T02:07:35;99411.53;;;9.66;88.43
84936;BME280;75210;52.210;20.902;2024-03-23T02:08:35;99419.25;;;9.69;88.38
84936;BME280;75210;52.210;20.902;2024-03-23T02:09:38;99469.59;;;10.05;88.42
84936;BME280;75210;52.210;20.902;2024-03-23T02:10:38;99270.34;;;8.83;87.65
84936;BME280;75210;52.210;20.902;2024-03-23T02:11:39;99353.25;;;9.31;88.23
84936;BME280;75210;52.210;20.902;2024-03-23T02:12:39;99397.28;;;9.56;88.44
84936;BME280;75210;52.210;20.902;2024-03-23T02:13:40;99429.31;;;9.77;88.26
84936;BME280;75210;52.210;20.902;2024-03-23T02:14:40;99322.44;;;9.05;88.60
84936;BME280;75210;52.210;20.902;2024-03-23T02:15:41;99496.25;;;10.01;88.57
84936;BME280;75210;52.210;20.902;2024-03-23T02:16:42;99465.66;;;9.98;89.26
84936;BME280;75210;52.210;20.902;2024-03-23T02:17:43;99473.00;;;9.93;88.91
84936;BME280;75210;52.210;20.902;2024-03-23T02:18:44;99434.03;;;9.71;89.17
84936;BME280;75210;52.210;20.902;2024-03-23T02:19:46;99430.63;;;9.69;89.55
84936;BME280;75210;52.210;20.902;2024-03-23T02:20:46;99469.63;;;9.91;89.50
84936;BME280;75210;52.210;20.902;2024-03-23T02:21:47;99462.56;;;9.92;89.45
84936;BME280;75210;52.210;20.902;2024-03-23T02:22:53;99442.88;;;9.70;89.63
84936;BME280;75210;52.210;20.902;2024-03-23T02:23:53;99481.22;;;9.89;89.75
84936;BME280;75210;52.210;20.902;2024-03-23T02:24:54;99472.09;;;9.80;90.19
84936;BME280;75210;52.210;20.902;2024-03-23T02:25:54;99367.06;;;9.20;90.07
84936;BME280;75210;52.210;20.902;2024-03-23T02:26:55;99471.72;;;9.86;89.90
84936;BME280;75210;52.210;20.902;2024-03-23T02:27:55;99465.41;;;9.89;89.94
84936;BME280;75210;52.210;20.902;2024-03-23T02:28:56;99472.25;;;9.91;89.87
84936;BME280;75210;52.210;20.902;2024-03-23T02:29:56;99473.84;;;9.94;89.66
84936;BME280;75210;52.210;20.902;2024-03-23T02:30:57;99336.63;;;9.16;89.63
84936;BME280;75210;52.210;20.902;2024-03-23T02:31:57;99374.38;;;9.44;89.60
84936;BME280;75210;52.210;20.902;2024-03-23T02:32:58;99273.38;;;8.77;89.58
84936;BME280;75210;52.210;20.902;2024-03-23T02:33:58;99429.69;;;9.70;89.35
84936;BME280;75210;52.210;20.902;2024-03-23T02:34:59;99462.56;;;9.92;89.34
84936;BME280;75210;52.210;20.902;2024-03-23T02:35:59;99392.59;;;9.47;89.32
84936;BME280;75210;52.210;20.902;2024-03-23T02:37:00;99364.03;;;9.41;89.35
84936;BME280;75210;52.210;20.902;2024-03-23T02:38:03;99348.91;;;9.30;89.29
84936;BME280;75210;52.210;20.902;2024-03-23T02:39:03;99315.78;;;9.13;89.03
84936;BME280;75210;52.210;20.902;2024-03-23T02:40:04;99378.09;;;9.54;89.03
84936;BME280;75210;52.210;20.902;2024-03-23T02:41:05;99452.88;;;9.92;89.57
84936;BME280;75210;52.210;20.902;2024-03-23T02:42:05;99459.25;;;10.02;89.67
84936;BME280;75210;52.210;20.902;2024-03-23T02:43:06;99455.03;;;10.00;89.66
84936;BME280;75210;52.210;20.902;2024-03-23T02:44:06;99367.31;;;9.44;89.69
84936;BME280;75210;52.210;20.902;2024-03-23T02:45:07;99304.41;;;9.13;89.37
84936;BME280;75210;52.210;20.902;2024-03-23T02:46:07;99346.53;;;9.40;89.50
84936;BME280;75210;52.210;20.902;2024-03-23T02:47:08;99461.16;;;10.00;89.92
84936;BME280;75210;52.210;20.902;2024-03-23T02:48:08;99452.59;;;9.97;89.91
84936;BME280;75210;52.210;20.902;2024-03-23T02:49:09;99441.41;;;9.93;89.60
84936;BME280;75210;52.210;20.902;2024-03-23T02:50:09;99427.78;;;9.87;90.15
84936;BME280;75210;52.210;20.902;2024-03-23T02:51:10;99439.78;;;9.91;90.67
84936;BME280;75210;52.210;20.902;2024-03-23T02:52:10;99285.47;;;8.93;90.03
84936;BME280;75210;52.210;20.902;2024-03-23T02:53:13;99333.63;;;9.22;90.57
84936;BME280;75210;52.210;20.902;2024-03-23T02:54:13;99332.09;;;9.32;90.33
84936;BME280;75210;52.210;20.902;2024-03-23T02:55:14;99436.78;;;9.97;90.21
84936;BME280;75210;52.210;20.902;2024-03-23T02:56:15;99443.00;;;9.96;90.41
84936;BME280;75210;52.210;20.902;2024-03-23T02:57:15;99316.78;;;9.25;90.55
84936;BME280;75210;52.210;20.902;2024-03-23T02:58:16;99435.94;;;9.96;90.41
84936;BME280;75210;52.210;20.902;2024-03-23T02:59:16;99404.56;;;9.79;90.30
84936;BME280;75210;52.210;20.902;2024-03-23T03:00:17;99317.94;;;9.21;90.54
84936;BME280;75210;52.210;20.902;2024-03-23T03:01:17;99436.53;;;9.87;91.14
84936;BME280;75210;52.210;20.902;2024-03-23T03:02:18;99437.53;;;9.99;90.27
84936;BME280;75210;52.210;20.902;2024-03-23T03:03:18;99423.75;;;9.81;91.06
84936;BME280;75210;52.210;20.902;2024-03-23T03:04:19;99435.28;;;9.93;90.84
84936;BME280;75210;52.210;20.902;2024-03-23T03:05:19;99427.19;;;9.96;90.81
84936;BME280;75210;52.210;20.902;2024-03-23T03:06:23;99437.72;;;9.96;90.91
84936;BME280;75210;52.210;20.902;2024-03-23T03:07:24;99408.78;;;9.82;90.99
84936;BME280;75210;52.210;20.902;2024-03-23T03:08:26;99323.06;;;9.36;90.59
84936;BME280;75210;52.210;20.902;2024-03-23T03:09:27;99421.91;;;9.96;90.65
84936;BME280;75210;52.210;20.902;2024-03-23T03:10:27;99423.94;;;10.05;90.32
84936;BME280;75210;52.210;20.902;2024-03-23T03:11:28;99317.59;;;9.40;90.45
84936;BME280;75210;52.210;20.902;2024-03-23T03:12:28;99244.78;;;8.99;89.90
84936;BME280;75210;52.210;20.902;2024-03-23T03:13:29;99259.59;;;9.14;89.78
84936;BME280;75210;52.210;20.902;2024-03-23T03:14:29;99379.31;;;9.89;89.93
84936;BME280;75210;52.210;20.902;2024-03-23T03:15:30;99312.81;;;9.32;90.08
84936;BME280;75210;52.210;20.902;2024-03-23T03:16:30;99416.22;;;10.02;90.77
84936;BME280;75210;52.210;20.902;2024-03-23T03:17:31;99391.53;;;9.90;90.56
84936;BME280;75210;52.210;20.902;2024-03-23T03:18:31;99297.69;;;9.35;90.45
84936;BME280;75210;52.210;20.902;2024-03-23T03:19:32;99333.75;;;9.48;90.40
84936;BME280;75210;52.210;20.902;2024-03-23T03:20:32;99311.38;;;9.41;90.38
84936;BME280;75210;52.210;20.902;2024-03-23T03:21:33;99312.72;;;9.33;90.43
84936;BME280;75210;52.210;20.902;2024-03-23T03:22:33;99297.19;;;9.43;90.04
84936;BME280;75210;52.210;20.902;2024-03-23T03:23:35;99236.53;;;8.91;89.97
84936;BME280;75210;52.210;20.902;2024-03-23T03:24:36;99312.91;;;9.30;90.81
84936;BME280;75210;52.210;20.902;2024-03-23T03:25:36;99403.63;;;9.80;91.28
84936;BME280;75210;52.210;20.902;2024-03-23T03:26:37;99317.56;;;9.27;90.98
84936;BME280;75210;52.210;20.902;2024-03-23T03:27:37;99427.84;;;9.99;91.02
84936;BME280;75210;52.210;20.902;2024-03-23T03:28:38;99426.91;;;10.00;91.00
84936;BME280;75210;52.210;20.902;2024-03-23T03:29:38;99409.88;;;9.92;90.97
84936;BME280;75210;52.210;20.902;2024-03-23T03:30:39;99404.59;;;9.92;90.90
84936;BME280;75210;52.210;20.902;2024-03-23T03:31:39;99325.19;;;9.44;90.93
84936;BME280;75210;52.210;20.902;2024-03-23T03:32:40;99431.19;;;10.01;91.20
84936;BME280;75210;52.210;20.902;2024-03-23T03:33:40;99425.13;;;10.01;91.18
84936;BME280;75210;52.210;20.902;2024-03-23T03:34:41;99308.22;;;9.35;90.81
84936;BME280;75210;52.210;20.902;2024-03-23T03:35:41;99426.50;;;10.06;90.79
84936;BME280;75210;52.210;20.902;2024-03-23T03:36:42;99427.03;;;10.12;90.64
84936;BME280;75210;52.210;20.902;2024-03-23T03:37:42;99425.94;;;10.01;91.00
84936;BME280;75210;52.210;20.902;2024-03-23T03:38:45;99310.94;;;9.34;91.05
84936;BME280;75210;52.210;20.902;2024-03-23T03:39:45;99318.00;;;9.33;91.11
84936;BME280;75210;52.210;20.902;2024-03-23T03:40:46;99436.69;;;9.98;91.37
84936;BME280;75210;52.210;20.902;2024-03-23T03:41:46;99391.47;;;9.78;91.16
84936;BME280;75210;52.210;20.902;2024-03-23T03:42:47;99311.78;;;9.34;90.76
84936;BME280;75210;52.210;20.902;2024-03-23T03:43:47;99286.94;;;9.12;90.73
84936;BME280;75210;52.210;20.902;2024-03-23T03:44:48;99343.34;;;9.49;91.26
84936;BME280;75210;52.210;20.902;2024-03-23T03:45:51;99427.75;;;10.01;91.40
84936;BME280;75210;52.210;20.902;2024-03-23T03:46:52;99358.94;;;9.52;91.45
84936;BME280;75210;52.210;20.902;2024-03-23T03:47:53;99396.66;;;9.79;91.59
84936;BME280;75210;52.210;20.902;2024-03-23T03:48:54;99408.19;;;9.91;91.80
84936;BME280;75210;52.210;20.902;2024-03-23T03:49:54;99419.09;;;9.99;91.49
84936;BME280;75210;52.210;20.902;2024-03-23T03:50:55;99416.22;;;10.02;91.40
84936;BME280;75210;52.210;20.902;2024-03-23T03:51:55;99401.97;;;9.92;91.18
84936;BME280;75210;52.210;20.902;2024-03-23T03:52:56;99274.78;;;9.23;90.85
84936;BME280;75210;52.210;20.902;2024-03-23T03:53:58;99262.56;;;9.22;90.90
84936;BME280;75210;52.210;20.902;2024-03-23T03:55:01;99293.50;;;9.46;90.62
84936;BME280;75210;52.210;20.902;2024-03-23T03:56:02;99382.09;;;10.00;90.40
84936;BME280;75210;52.210;20.902;2024-03-23T03:57:03;99379.66;;;9.97;90.53
84936;BME280;75210;52.210;20.902;2024-03-23T03:58:04;99279.31;;;9.48;90.09
84936;BME280;75210;52.210;20.902;2024-03-23T03:59:05;99383.56;;;10.04;90.08
84936;BME280;75210;52.210;20.902;2024-03-23T04:00:06;99369.97;;;9.98;90.35
84936;BME280;75210;52.210;20.902;2024-03-23T04:01:07;99407.06;;;10.22;90.36
84936;BME280;75210;52.210;20.902;2024-03-23T04:02:07;99362.47;;;9.92;90.53
84936;BME280;75210;52.210;20.902;2024-03-23T04:03:08;99396.88;;;10.16;90.30
84936;BME280;75210;52.210;20.902;2024-03-23T04:04:08;99279.50;;;9.45;90.34
84936;BME280;75210;52.210;20.902;2024-03-23T04:05:09;99396.72;;;10.19;90.28
84936;BME280;75210;52.210;20.902;2024-03-23T04:06:09;99364.38;;;10.02;89.89
84936;BME280;75210;52.210;20.902;2024-03-23T04:07:10;99410.22;;;10.27;90.06
84936;BME280;75210;52.210;20.902;2024-03-23T04:08:10;99272.97;;;9.38;90.35
84936;BME280;75210;52.210;20.902;2024-03-23T04:09:12;99406.88;;;10.25;90.12
84936;BME280;75210;52.210;20.902;2024-03-23T04:10:13;99287.31;;;9.47;90.43
84936;BME280;75210;52.210;20.902;2024-03-23T04:11:14;99318.53;;;9.65;90.26
84936;BME280;75210;52.210;20.902;2024-03-23T04:12:14;99308.50;;;9.58;90.23
84936;BME280;75210;52.210;20.902;2024-03-23T04:13:15;99392.94;;;10.23;90.25
84936;BME280;75210;52.210;20.902;2024-03-23T04:14:15;99299.66;;;9.59;90.29
84936;BME280;75210;52.210;20.902;2024-03-23T04:15:16;99262.91;;;9.30;90.00
84936;BME280;75210;52.210;20.902;2024-03-23T04:16:26;99308.84;;;9.66;89.99
84936;BME280;75210;52.210;20.902;2024-03-23T04:17:26;99345.66;;;9.80;90.26
84936;BME280;75210;52.210;20.902;2024-03-23T04:18:27;99231.38;;;9.16;90.05
84936;BME280;75210;52.210;20.902;2024-03-23T04:19:27;99392.22;;;10.21;90.18
84936;BME280;75210;52.210;20.902;2024-03-23T04:20:28;99310.25;;;9.71;89.94
84936;BME280;75210;52.210;20.902;2024-03-23T04:21:28;99291.34;;;9.65;90.01
84936;BME280;75210;52.210;20.902;2024-03-23T04:22:29;99249.28;;;9.38;89.76
84936;BME280;75210;52.210;20.902;2024-03-23T04:23:29;99316.78;;;9.79;90.11
84936;BME280;75210;52.210;20.902;2024-03-23T04:24:32;99382.94;;;10.28;89.97
84936;BME280;75210;52.210;20.902;2024-03-23T04:25:33;99323.25;;;9.87;90.55
84936;BME280;75210;52.210;20.902;2024-03-23T04:26:40;99232.28;;;9.29;89.83
84936;BME280;75210;52.210;20.902;2024-03-23T04:27:41;99393.25;;;10.18;90.65
84936;BME280;75210;52.210;20.902;2024-03-23T04:28:41;99325.00;;;9.74;90.15
84936;BME280;75210;52.210;20.902;2024-03-23T04:29:42;99384.41;;;10.19;90.20
84936;BME280;75210;52.210;20.902;2024-03-23T04:30:42;99269.81;;;9.46;90.46
84936;BME280;75210;52.210;20.902;2024-03-23T04:31:43;99282.50;;;9.66;90.33
84936;BME280;75210;52.210;20.902;2024-03-23T04:32:43;99294.75;;;9.67;90.36
84936;BME280;75210;52.210;20.902;2024-03-23T04:33:44;99377.22;;;10.21;90.46
84936;BME280;75210;52.210;20.902;2024-03-23T04:34:45;99260.97;;;9.47;90.37
84936;BME280;75210;52.210;20.902;2024-03-23T04:35:48;99269.03;;;9.58;90.42
84936;BME280;75210;52.210;20.902;2024-03-23T04:36:49;99347.53;;;10.05;90.46
84936;BME280;75210;52.210;20.902;2024-03-23T04:37:49;99373.50;;;10.11;90.87
84936;BME280;75210;52.210;20.902;2024-03-23T04:38:50;99376.03;;;10.13;90.59
84936;BME280;75210;52.210;20.902;2024-03-23T04:39:53;99232.81;;;9.34;90.19
84936;BME280;75210;52.210;20.902;2024-03-23T04:40:56;99384.19;;;10.22;90.05
84936;BME280;75210;52.210;20.902;2024-03-23T04:41:57;99360.59;;;10.06;90.39
84936;BME280;75210;52.210;20.902;2024-03-23T04:42:58;99335.22;;;9.79;90.80
84936;BME280;75210;52.210;20.902;2024-03-23T04:43:58;99352.38;;;9.98;90.79
84936;BME280;75210;52.210;20.902;2024-03-23T04:44:59;99323.13;;;9.76;90.16
84936;BME280;75210;52.210;20.902;2024-03-23T04:45:59;99380.22;;;10.15;90.44
84936;BME280;75210;52.210;20.902;2024-03-23T04:47:00;99296.75;;;9.63;90.62
84936;BME280;75210;52.210;20.902;2024-03-23T04:48:01;99374.13;;;10.15;90.65
84936;BME280;75210;52.210;20.902;2024-03-23T04:49:01;99324.53;;;9.94;90.58
84936;BME280;75210;52.210;20.902;2024-03-23T04:50:02;99223.44;;;9.30;90.36
84936;BME280;75210;52.210;20.902;2024-03-23T04:51:03;99371.03;;;10.22;90.14
84936;BME280;75210;52.210;20.902;2024-03-23T04:52:04;99251.84;;;9.65;89.64
84936;BME280;75210;52.210;20.902;2024-03-23T04:53:05;99254.63;;;9.63;89.64
84936;BME280;75210;52.210;20.902;2024-03-23T04:54:05;99323.00;;;10.17;89.59
84936;BME280;75210;52.210;20.902;2024-03-23T04:55:08;99337.19;;;10.29;89.63
84936;BME280;75210;52.210;20.902;2024-03-23T04:56:09;99256.22;;;9.79;89.61
84936;BME280;75210;52.210;20.902;2024-03-23T04:57:09;99340.16;;;10.37;89.28
84936;BME280;75210;52.210;20.902;2024-03-23T04:58:10;99303.94;;;10.14;88.85
84936;BME280;75210;52.210;20.902;2024-03-23T04:59:10;99278.25;;;9.90;89.54
84936;BME280;75210;52.210;20.902;2024-03-23T05:00:12;99306.31;;;10.04;89.78
84936;BME280;75210;52.210;20.902;2024-03-23T05:01:13;99349.59;;;10.27;89.82
84936;BME280;75210;52.210;20.902;2024-03-23T05:02:14;99358.16;;;10.30;89.78
84936;BME280;75210;52.210;20.902;2024-03-23T05:03:15;99284.03;;;9.83;89.83
84936;BME280;75210;52.210;20.902;2024-03-23T05:04:15;99350.59;;;10.26;89.97
84936;BME280;75210;52.210;20.902;2024-03-23T05:05:16;99212.53;;;9.36;89.77
84936;BME280;75210;52.210;20.902;2024-03-23T05:06:16;99348.94;;;10.11;90.63
84936;BME280;75210;52.210;20.902;2024-03-23T05:07:16;99321.16;;;9.92;90.58
84936;BME280;75210;52.210;20.902;2024-03-23T05:08:17;99360.22;;;10.13;90.62
84936;BME280;75210;52.210;20.902;2024-03-23T05:09:17;99301.53;;;9.84;90.02
84936;BME280;75210;52.210;20.902;2024-03-23T05:10:20;99327.38;;;9.91;89.97
84936;BME280;75210;52.210;20.902;2024-03-23T05:11:20;99283.06;;;9.71;89.96
84936;BME280;75210;52.210;20.902;2024-03-23T05:12:21;99215.34;;;9.33;90.00
84936;BME280;75210;52.210;20.902;2024-03-23T05:13:21;99359.44;;;10.25;90.00
84936;BME280;75210;52.210;20.902;2024-03-23T05:14:22;99310.81;;;9.89;90.17
84936;BME280;75210;52.210;20.902;2024-03-23T05:15:22;99359.06;;;10.17;90.20
84936;BME280;75210;52.210;20.902;2024-03-23T05:16:23;99271.25;;;9.64;90.11
84936;BME280;75210;52.210;20.902;2024-03-23T05:17:23;99353.22;;;10.26;89.72
84936;BME280;75210;52.210;20.902;2024-03-23T05:18:24;99351.19;;;10.29;89.70
84936;BME280;75210;52.210;20.902;2024-03-23T05:19:24;99357.31;;;10.30;89.50
84936;BME280;75210;52.210;20.902;2024-03-23T05:20:25;99349.28;;;10.19;90.21
84936;BME280;75210;52.210;20.902;2024-03-23T05:21:25;99263.88;;;9.69;90.00
84936;BME280;75210;52.210;20.902;2024-03-23T05:22:26;99322.22;;;10.02;90.06
84936;BME280;75210;52.210;20.902;2024-03-23T05:23:28;99350.97;;;10.20;90.26
84936;BME280;75210;52.210;20.902;2024-03-23T05:24:28;99351.53;;;10.25;89.95
84936;BME280;75210;52.210;20.902;2024-03-23T05:25:30;99345.94;;;10.29;89.86
84936;BME280;75210;52.210;20.902;2024-03-23T05:26:31;99346.03;;;10.28;89.99
84936;BME280;75210;52.210;20.902;2024-03-23T05:27:32;99321.84;;;10.08;90.00
84936;BME280;75210;52.210;20.902;2024-03-23T05:28:33;99348.66;;;10.28;89.71
84936;BME280;75210;52.210;20.902;2024-03-23T05:29:33;99330.47;;;10.11;90.11
84936;BME280;75210;52.210;20.902;2024-03-23T05:30:34;99305.47;;;10.03;89.65
84936;BME280;75210;52.210;20.902;2024-03-23T05:31:34;99257.13;;;9.65;89.90
84936;BME280;75210;52.210;20.902;2024-03-23T05:32:35;99343.63;;;10.25;89.88
84936;BME280;75210;52.210;20.902;2024-03-23T05:33:35;99310.84;;;10.02;89.71
84936;BME280;75210;52.210;20.902;2024-03-23T05:34:36;99252.03;;;9.76;89.27
84936;BME280;75210;52.210;20.902;2024-03-23T05:35:36;99342.44;;;10.29;89.51
84936;BME280;75210;52.210;20.902;2024-03-23T05:36:37;99345.41;;;10.24;89.64
84936;BME280;75210;52.210;20.902;2024-03-23T05:37:37;99349.34;;;10.17;90.19
84936;BME280;75210;52.210;20.902;2024-03-23T05:38:38;99343.63;;;10.25;89.86
84936;BME280;75210;52.210;20.902;2024-03-23T05:39:38;99235.88;;;9.68;89.63
84936;BME280;75210;52.210;20.902;2024-03-23T05:40:40;99191.56;;;9.35;89.30
84936;BME280;75210;52.210;20.902;2024-03-23T05:41:41;99229.44;;;9.59;89.35
84936;BME280;75210;52.210;20.902;2024-03-23T05:42:42;99306.41;;;10.02;89.70
84936;BME280;75210;52.210;20.902;2024-03-23T05:43:42;99206.50;;;9.34;89.76
84936;BME280;75210;52.210;20.902;2024-03-23T05:44:43;99239.53;;;9.65;89.79
84936;BME280;75210;52.210;20.902;2024-03-23T05:45:44;99341.94;;;10.24;89.73
84936;BME280;75210;52.210;20.902;2024-03-23T05:46:45;99337.91;;;10.31;89.65
84936;BME280;75210;52.210;20.902;2024-03-23T05:47:45;99341.59;;;10.28;89.71
84936;BME280;75210;52.210;20.902;2024-03-23T05:48:46;99337.28;;;10.27;89.65
84936;BME280;75210;52.210;20.902;2024-03-23T05:49:47;99321.25;;;10.30;89.26
84936;BME280;75210;52.210;20.902;2024-03-23T05:50:48;99326.97;;;10.24;89.44
84936;BME280;75210;52.210;20.902;2024-03-23T05:51:48;99324.22;;;10.26;89.35
84936;BME280;75210;52.210;20.902;2024-03-23T05:52:49;99216.34;;;9.58;89.55
84936;BME280;75210;52.210;20.902;2024-03-23T05:53:49;99336.88;;;10.33;89.89
84936;BME280;75210;52.210;20.902;2024-03-23T05:54:50;99318.41;;;10.33;89.32
84936;BME280;75210;52.210;20.902;2024-03-23T05:56:00;99336.88;;;10.46;89.21
84936;BME280;75210;52.210;20.902;2024-03-23T05:57:01;99279.03;;;10.05;89.04
84936;BME280;75210;52.210;20.902;2024-03-23T05:58:02;99214.56;;;9.58;88.93
84936;BME280;75210;52.210;20.902;2024-03-23T05:59:02;99295.22;;;10.26;88.97
84936;BME280;75210;52.210;20.902;2024-03-23T06:00:03;99282.06;;;10.26;88.62
84936;BME280;75210;52.210;20.902;2024-03-23T06:01:04;99314.75;;;10.49;88.37
84936;BME280;75210;52.210;20.902;2024-03-23T06:02:05;99326.44;;;10.44;88.84
84936;BME280;75210;52.210;20.902;2024-03-23T06:03:06;99077.06;;;9.02;88.35
84936;BME280;75210;52.210;20.902;2024-03-23T06:04:06;99171.69;;;9.56;88.86
84936;BME280;75210;52.210;20.902;2024-03-23T06:05:07;99239.19;;;9.97;88.80
84936;BME280;75210;52.210;20.902;2024-03-23T06:06:08;99314.41;;;10.53;88.90
84936;BME280;75210;52.210;20.902;2024-03-23T06:07:08;99247.09;;;9.97;88.98
84936;BME280;75210;52.210;20.902;2024-03-23T06:08:09;99317.88;;;10.54;89.10
84936;BME280;75210;52.210;20.902;2024-03-23T06:09:09;99318.34;;;10.60;88.73
84936;BME280;75210;52.210;20.902;2024-03-23T06:10:10;99286.03;;;10.44;88.40
84936;BME280;75210;52.210;20.902;2024-03-23T06:11:12;99225.69;;;10.01;88.45
84936;BME280;75210;52.210;20.902;2024-03-23T06:12:12;99279.28;;;10.40;88.26
84936;BME280;75210;52.210;20.902;2024-03-23T06:13:13;99308.41;;;10.38;88.98